Latest Weather Observations for Adele Island
Issued at 11:03 pm WST Monday 31 August 2026 (issued every 10 minutes, with the page automatically refreshed every 10 minutes)
| Station Details | ID: 200735 | Name: ADELE ISLAND | Lat: -15.51 | Lon: 123.16 | Height: 4.6 m |
| Date/Time WST |
Temp °C |
App Temp °C |
Dew Point °C |
Rel Hum % |
Delta-T °C |
Wind | Press QNH hPa |
Press MSL hPa |
Rain since 9am mm |
|||||
|---|---|---|---|---|---|---|---|---|---|---|---|---|---|---|
| Dir | Spd km/h |
Gust km/h |
Spd kts |
Gust kts |
||||||||||
| 31/11:00pm | 25.7 | - | - | - | - | WSW | 15 | 19 | 8 | 10 | 1017.4 | 1017.3 | - | |
| 31/10:30pm | 25.7 | - | - | - | - | WSW | 17 | 20 | 9 | 11 | 1017.4 | 1017.3 | - | |
| 31/10:00pm | 25.5 | - | - | - | - | WSW | 17 | 19 | 9 | 10 | 1017.4 | 1017.3 | - | |
| 31/09:30pm | 25.6 | - | - | - | - | W | 17 | 20 | 9 | 11 | 1017.4 | 1017.3 | - | |
| 31/09:00pm | 25.7 | - | - | - | - | W | 17 | 20 | 9 | 11 | 1017.4 | 1017.3 | - | |
| 31/08:30pm | 25.8 | - | - | - | - | W | 17 | 19 | 9 | 10 | 1017.4 | 1017.3 | - | |
| 31/08:00pm | 26.0 | - | - | - | - | W | 17 | 20 | 9 | 11 | 1017.1 | 1017.0 | - | |
| 31/07:30pm | 25.9 | - | - | - | - | WNW | 15 | 20 | 8 | 11 | 1017.0 | 1016.9 | - | |
| 31/07:00pm | 26.2 | - | - | - | - | WNW | 17 | 19 | 9 | 10 | 1016.7 | 1016.6 | - | |
| 31/06:30pm | 26.2 | - | - | - | - | WNW | 15 | 17 | 8 | 9 | 1016.4 | 1016.3 | - | |
| 31/06:00pm | 26.3 | - | - | - | - | WNW | 15 | 17 | 8 | 9 | 1016.1 | 1016.0 | - | |
| 31/05:30pm | 26.6 | - | - | - | - | W | 13 | 15 | 7 | 8 | 1015.8 | 1015.7 | - | |
| 31/05:00pm | 27.2 | - | - | - | - | W | 6 | 13 | 3 | 7 | 1015.9 | 1015.8 | - | |
| 31/04:30pm | 27.6 | - | - | - | - | CALM | 0 | 4 | 0 | 2 | 1015.8 | 1015.7 | - | |
| 31/04:00pm | 27.8 | - | - | - | - | WSW | 9 | 13 | 5 | 7 | 1015.7 | 1015.6 | - | |
| 31/03:30pm | 28.7 | - | - | - | - | S | 15 | 19 | 8 | 10 | 1015.7 | 1015.6 | - | |
| 31/03:00pm | 29.0 | - | - | - | - | S | 15 | 19 | 8 | 10 | 1015.6 | 1015.5 | - | |
| 31/02:30pm | 29.2 | - | - | - | - | SSW | 17 | 20 | 9 | 11 | 1015.8 | 1015.7 | - | |
| 31/02:00pm | 28.3 | - | - | - | - | SW | 17 | 22 | 9 | 12 | 1016.0 | 1015.9 | - | |
| 31/01:30pm | 28.3 | - | - | - | - | SW | 17 | 22 | 9 | 12 | 1016.2 | 1016.1 | - | |
| 31/01:00pm | 28.3 | - | - | - | - | SW | 17 | 24 | 9 | 13 | 1016.5 | 1016.4 | - | |
| 31/12:30pm | 27.8 | - | - | - | - | SW | 17 | 22 | 9 | 12 | 1016.9 | 1016.8 | - | |
| 31/12:00pm | 28.5 | - | - | - | - | ESE | 13 | 17 | 7 | 9 | 1017.5 | 1017.4 | - | |
| 31/11:30am | 28.9 | - | - | - | - | E | 13 | 17 | 7 | 9 | 1017.9 | 1017.8 | - | |
| 31/11:00am | 28.3 | - | - | - | - | E | 13 | 15 | 7 | 8 | 1018.2 | 1018.1 | - | |
| 31/10:30am | 28.3 | - | - | - | - | E | 13 | 19 | 7 | 10 | 1018.5 | 1018.4 | - | |
| 31/10:00am | 28.6 | - | - | - | - | E | 15 | 19 | 8 | 10 | 1018.7 | 1018.6 | - | |
| 31/09:30am | 28.2 | - | - | - | - | E | 13 | 19 | 7 | 10 | 1019.0 | 1018.9 | - | |
| 31/09:00am | 27.9 | - | - | - | - | ESE | 15 | 19 | 8 | 10 | 1019.0 | 1018.9 | - | |
| 31/08:30am | 26.6 | - | - | - | - | E | 11 | 15 | 6 | 8 | 1019.0 | 1018.9 | - | |
| 31/08:00am | 26.6 | - | - | - | - | ENE | 9 | 11 | 5 | 6 | 1018.9 | 1018.8 | - | |
| 31/07:30am | 25.8 | - | - | - | - | NE | 7 | 7 | 4 | 4 | 1018.7 | 1018.6 | - | |
| 31/07:00am | 24.9 | - | - | - | - | ENE | 9 | 9 | 5 | 5 | 1018.5 | 1018.4 | - | |
| 31/06:30am | 25.1 | - | - | - | - | ESE | 9 | 11 | 5 | 6 | 1018.2 | 1018.1 | - | |
| 31/06:00am | 25.3 | - | - | - | - | SSE | 11 | 13 | 6 | 7 | 1017.7 | 1017.6 | - | |
| 31/05:30am | 25.6 | - | - | - | - | S | 2 | 6 | 1 | 3 | 1017.4 | 1017.3 | - | |
| 31/05:00am | 25.8 | - | - | - | - | CALM | 0 | 2 | 0 | 1 | 1017.0 | 1016.9 | - | |
| 31/04:30am | 25.6 | - | - | - | - | CALM | 0 | 4 | 0 | 2 | 1016.8 | 1016.7 | - | |
| 31/04:00am | 25.5 | - | - | - | - | CALM | 0 | 4 | 0 | 2 | 1016.7 | 1016.6 | - | |
| 31/03:30am | 25.5 | - | - | - | - | CALM | 0 | 2 | 0 | 1 | 1016.7 | 1016.6 | - | |
| 31/03:00am | 25.6 | - | - | - | - | CALM | 0 | 4 | 0 | 2 | 1016.6 | 1016.5 | - | |
| 31/02:30am | 25.7 | - | - | - | - | CALM | 0 | 2 | 0 | 1 | 1016.6 | 1016.5 | - | |
| 31/02:00am | 25.9 | - | - | - | - | CALM | 0 | 2 | 0 | 1 | 1016.5 | 1016.4 | - | |
| 31/01:30am | 25.9 | - | - | - | - | CALM | 0 | 4 | 0 | 2 | 1016.6 | 1016.5 | - | |
| 31/01:00am | 26.1 | - | - | - | - | CALM | 0 | 4 | 0 | 2 | 1016.7 | 1016.6 | - | |
| 31/12:30am | 26.1 | - | - | - | - | CALM | 0 | 4 | 0 | 2 | 1017.0 | 1016.9 | - | |
| 31/12:00am | 25.8 | - | - | - | - | SW | 4 | 11 | 2 | 6 | 1017.4 | 1017.3 | - | |
| Date/Time WST |
Temp °C |
App Temp °C |
Dew Point °C |
Rel Hum % |
Delta-T °C |
Wind | Press QNH hPa |
Press MSL hPa |
Rain since 9am mm |
|||||
|---|---|---|---|---|---|---|---|---|---|---|---|---|---|---|
| Dir | Spd km/h |
Gust km/h |
Spd kts |
Gust kts |
||||||||||
| 30/11:30pm | 26.0 | - | - | - | - | SW | 11 | 15 | 6 | 8 | 1017.5 | 1017.4 | - | |
| 30/11:00pm | 25.9 | - | - | - | - | SW | 13 | 15 | 7 | 8 | 1017.5 | 1017.4 | - | |
| 30/10:30pm | 25.7 | - | - | - | - | WSW | 13 | 15 | 7 | 8 | 1017.5 | 1017.4 | - | |
| 30/10:00pm | 25.7 | - | - | - | - | SW | 13 | 15 | 7 | 8 | 1017.5 | 1017.4 | - | |
| 30/09:30pm | 25.7 | - | - | - | - | WSW | 13 | 15 | 7 | 8 | 1017.3 | 1017.2 | - | |
| 30/09:00pm | 25.7 | - | - | - | - | W | 13 | 15 | 7 | 8 | 1017.2 | 1017.1 | - | |
| 30/08:30pm | 25.8 | - | - | - | - | WSW | 13 | 15 | 7 | 8 | 1017.1 | 1017.0 | - | |
| 30/08:00pm | 25.7 | - | - | - | - | SW | 15 | 15 | 8 | 8 | 1016.9 | 1016.8 | - | |
| 30/07:30pm | 25.7 | - | - | - | - | W | 13 | 15 | 7 | 8 | 1016.4 | 1016.3 | - | |
| 30/07:00pm | 25.9 | - | - | - | - | W | 15 | 17 | 8 | 9 | 1015.9 | 1015.8 | - | |
| 30/06:30pm | 25.9 | - | - | - | - | W | 13 | 17 | 7 | 9 | 1015.7 | 1015.6 | - | |
| 30/06:00pm | 26.0 | - | - | - | - | W | 13 | 17 | 7 | 9 | 1015.4 | 1015.3 | - | |
| 30/05:30pm | 26.3 | - | - | - | - | W | 13 | 15 | 7 | 8 | 1015.2 | 1015.1 | - | |
| 30/05:00pm | 26.9 | - | - | - | - | WSW | 13 | 15 | 7 | 8 | 1015.1 | 1015.0 | - | |
| 30/04:30pm | 26.9 | - | - | - | - | SW | 13 | 15 | 7 | 8 | 1015.0 | 1014.9 | - | |
| 30/04:00pm | 27.5 | - | - | - | - | SW | 13 | 15 | 7 | 8 | 1014.8 | 1014.7 | - | |
| 30/03:30pm | 27.6 | - | - | - | - | SW | 13 | 15 | 7 | 8 | 1014.7 | 1014.6 | - | |
| 30/03:00pm | 27.2 | - | - | - | - | SW | 15 | 19 | 8 | 10 | 1014.8 | 1014.7 | - | |
| 30/02:30pm | 28.2 | - | - | - | - | ESE | 9 | 13 | 5 | 7 | 1014.8 | 1014.7 | - | |
| 30/02:00pm | 27.4 | - | - | - | - | ESE | 11 | 15 | 6 | 8 | 1015.0 | 1014.9 | - | |
| 30/01:30pm | 27.2 | - | - | - | - | ESE | 15 | 17 | 8 | 9 | 1015.3 | 1015.2 | - | |
| 30/01:00pm | 27.3 | - | - | - | - | E | 15 | 19 | 8 | 10 | 1015.6 | 1015.5 | - | |
| 30/12:30pm | 28.3 | - | - | - | - | ESE | 15 | 19 | 8 | 10 | 1015.9 | 1015.8 | - | |
| 30/12:00pm | 28.4 | - | - | - | - | ESE | 17 | 20 | 9 | 11 | 1016.3 | 1016.2 | - | |
| 30/11:30am | 28.5 | - | - | - | - | E | 13 | 20 | 7 | 11 | 1016.8 | 1016.7 | - | |
| 30/11:00am | 27.5 | - | - | - | - | ENE | 11 | 15 | 6 | 8 | 1017.2 | 1017.1 | - | |
| 30/10:30am | 27.5 | - | - | - | - | ENE | 9 | 13 | 5 | 7 | 1017.5 | 1017.4 | - | |
| 30/10:00am | 27.4 | - | - | - | - | ENE | 9 | 11 | 5 | 6 | 1017.9 | 1017.8 | - | |
| 30/09:30am | 27.3 | - | - | - | - | ENE | 7 | 13 | 4 | 7 | 1018.2 | 1018.1 | - | |
| 30/09:00am | 26.8 | - | - | - | - | NE | 7 | 11 | 4 | 6 | 1018.2 | 1018.1 | - | |
| 30/08:30am | 27.1 | - | - | - | - | ENE | 7 | 11 | 4 | 6 | 1018.0 | 1017.9 | - | |
| 30/08:00am | 26.2 | - | - | - | - | ENE | 7 | 9 | 4 | 5 | 1017.6 | 1017.5 | - | |
| 30/07:30am | 25.7 | - | - | - | - | CALM | 0 | 0 | 0 | 0 | 1017.5 | 1017.4 | - | |
| 30/07:00am | 25.3 | - | - | - | - | E | 6 | 7 | 3 | 4 | 1017.4 | 1017.3 | - | |
| 30/06:30am | 25.1 | - | - | - | - | ESE | 7 | 9 | 4 | 5 | 1017.3 | 1017.2 | - | |
| 30/06:00am | 24.8 | - | - | - | - | CALM | 0 | 2 | 0 | 1 | 1017.1 | 1017.0 | - | |
| 30/05:30am | 23.4 | - | - | - | - | NE | 6 | 7 | 3 | 4 | 1016.9 | 1016.8 | - | |
| 30/05:00am | 25.0 | - | - | - | - | E | 9 | 11 | 5 | 6 | 1016.6 | 1016.5 | - | |
| 30/04:30am | 25.2 | - | - | - | - | ESE | 9 | 11 | 5 | 6 | 1016.4 | 1016.3 | - | |
| 30/04:00am | 25.2 | - | - | - | - | ESE | 11 | 11 | 6 | 6 | 1016.2 | 1016.1 | - | |
| 30/03:30am | 25.2 | - | - | - | - | ENE | 9 | 9 | 5 | 5 | 1016.2 | 1016.1 | - | |
| 30/03:00am | 25.2 | - | - | - | - | NNE | 6 | 7 | 3 | 4 | 1016.1 | 1016.0 | - | |
| 30/02:30am | 25.3 | - | - | - | - | ENE | 9 | 11 | 5 | 6 | 1016.3 | 1016.2 | - | |
| 30/02:00am | 25.6 | - | - | - | - | SSE | 6 | 9 | 3 | 5 | 1016.4 | 1016.3 | - | |
| 30/01:30am | 25.6 | - | - | - | - | CALM | 0 | 0 | 0 | 0 | 1016.5 | 1016.4 | - | |
| 30/01:00am | 25.9 | - | - | - | - | N | 7 | 7 | 4 | 4 | 1016.5 | 1016.4 | - | |
| 30/12:30am | 26.0 | - | - | - | - | N | 6 | 7 | 3 | 4 | 1016.7 | 1016.6 | - | |
| 30/12:00am | 26.0 | - | - | - | - | CALM | 0 | 0 | 0 | 0 | 1016.7 | 1016.6 | - | |
| Date/Time WST |
Temp °C |
App Temp °C |
Dew Point °C |
Rel Hum % |
Delta-T °C |
Wind | Press QNH hPa |
Press MSL hPa |
Rain since 9am mm |
|||||
|---|---|---|---|---|---|---|---|---|---|---|---|---|---|---|
| Dir | Spd km/h |
Gust km/h |
Spd kts |
Gust kts |
||||||||||
| 29/11:30pm | 26.1 | - | - | - | - | NW | 6 | 7 | 3 | 4 | 1016.8 | 1016.7 | - | |
| 29/11:00pm | 26.3 | - | - | - | - | WNW | 9 | 11 | 5 | 6 | 1016.9 | 1016.8 | - | |
| 29/10:30pm | 26.3 | - | - | - | - | W | 11 | 13 | 6 | 7 | 1016.9 | 1016.8 | - | |
| 29/10:00pm | 26.5 | - | - | - | - | W | 13 | 13 | 7 | 7 | 1016.8 | 1016.7 | - | |
| 29/09:30pm | 26.2 | - | - | - | - | WSW | 13 | 13 | 7 | 7 | 1016.8 | 1016.7 | - | |
| 29/09:00pm | 25.9 | - | - | - | - | SW | 15 | 15 | 8 | 8 | 1016.9 | 1016.8 | - | |
| 29/08:30pm | 26.2 | - | - | - | - | SW | 13 | 15 | 7 | 8 | 1016.7 | 1016.6 | - | |
| 29/08:00pm | 26.1 | - | - | - | - | SW | 13 | 13 | 7 | 7 | 1016.4 | 1016.3 | - | |
| 29/07:30pm | 26.0 | - | - | - | - | SW | 13 | 15 | 7 | 8 | 1016.3 | 1016.2 | - | |
| 29/07:00pm | 26.1 | - | - | - | - | W | 13 | 15 | 7 | 8 | 1015.8 | 1015.7 | - | |
| 29/06:30pm | 26.0 | - | - | - | - | WSW | 13 | 15 | 7 | 8 | 1015.6 | 1015.5 | - | |
| 29/06:00pm | 26.4 | - | - | - | - | W | 11 | 13 | 6 | 7 | 1015.5 | 1015.4 | - | |
| 29/05:30pm | 26.8 | - | - | - | - | NW | 7 | 9 | 4 | 5 | 1015.4 | 1015.3 | - | |
| 29/05:00pm | 27.3 | - | - | - | - | NW | 9 | 9 | 5 | 5 | 1015.3 | 1015.2 | - | |
| 29/04:30pm | 27.7 | - | - | - | - | WNW | 9 | 11 | 5 | 6 | 1015.1 | 1015.0 | - | |
| 29/04:00pm | 28.3 | - | - | - | - | SW | 11 | 13 | 6 | 7 | 1014.9 | 1014.8 | - | |
| 29/03:30pm | 28.9 | - | - | - | - | ESE | 7 | 11 | 4 | 6 | 1014.8 | 1014.7 | - | |
| 29/03:00pm | 27.9 | - | - | - | - | ESE | 11 | 13 | 6 | 7 | 1015.1 | 1015.0 | - | |
| 29/02:30pm | 28.0 | - | - | - | - | E | 11 | 15 | 6 | 8 | 1015.3 | 1015.2 | - | |
| 29/02:00pm | 27.9 | - | - | - | - | E | 13 | 17 | 7 | 9 | 1015.6 | 1015.5 | - | |
| 29/01:30pm | 27.7 | - | - | - | - | E | 15 | 17 | 8 | 9 | 1015.9 | 1015.8 | - | |
| 29/01:00pm | 28.1 | - | - | - | - | E | 17 | 20 | 9 | 11 | 1016.2 | 1016.1 | - | |
| 29/12:30pm | 28.0 | - | - | - | - | ESE | 17 | 22 | 9 | 12 | 1016.4 | 1016.3 | - | |
| 29/12:00pm | 29.1 | - | - | - | - | ESE | 17 | 20 | 9 | 11 | 1016.8 | 1016.7 | - | |
| 29/11:30am | 29.3 | - | - | - | - | ESE | 17 | 22 | 9 | 12 | 1017.1 | 1017.0 | - | |
| 29/11:00am | 28.5 | - | - | - | - | SE | 19 | 24 | 10 | 13 | 1017.5 | 1017.4 | - | |
| 29/10:30am | 28.4 | - | - | - | - | ESE | 19 | 22 | 10 | 12 | 1018.0 | 1017.9 | - | |
| 29/10:00am | 27.7 | - | - | - | - | E | 17 | 20 | 9 | 11 | 1018.4 | 1018.3 | - | |
| 29/09:30am | 28.0 | - | - | - | - | E | 15 | 19 | 8 | 10 | 1018.6 | 1018.5 | - | |
| 29/09:00am | 27.5 | - | - | - | - | E | 13 | 19 | 7 | 10 | 1018.7 | 1018.6 | - | |
| 29/08:30am | 27.0 | - | - | - | - | ESE | 15 | 17 | 8 | 9 | 1018.6 | 1018.5 | - | |
| 29/08:00am | 26.8 | - | - | - | - | E | 13 | 17 | 7 | 9 | 1018.3 | 1018.2 | - | |
| 29/07:30am | 26.1 | - | - | - | - | SE | 11 | 13 | 6 | 7 | 1018.1 | 1018.0 | - | |
| 29/07:00am | 24.9 | - | - | - | - | SE | 11 | 13 | 6 | 7 | 1017.9 | 1017.8 | - | |
| 29/06:30am | 24.8 | - | - | - | - | SE | 15 | 15 | 8 | 8 | 1017.5 | 1017.4 | - | |
| 29/06:00am | 24.6 | - | - | - | - | ESE | 13 | 15 | 7 | 8 | 1017.1 | 1017.0 | - | |
| 29/05:30am | 24.0 | - | - | - | - | SSE | 13 | 15 | 7 | 8 | 1016.7 | 1016.6 | - | |
| 29/05:00am | 24.8 | - | - | - | - | SSE | 13 | 17 | 7 | 9 | 1016.4 | 1016.3 | - | |
| 29/04:30am | 24.5 | - | - | - | - | SSE | 15 | 17 | 8 | 9 | 1016.2 | 1016.1 | - | |
| 29/04:00am | 24.6 | - | - | - | - | SSE | 13 | 17 | 7 | 9 | 1016.2 | 1016.1 | - | |
| 29/03:30am | 25.0 | - | - | - | - | S | 17 | 17 | 9 | 9 | 1016.1 | 1016.0 | - | |
| 29/03:00am | 24.8 | - | - | - | - | S | 15 | 15 | 8 | 8 | 1016.1 | 1016.0 | - | |
| 29/02:30am | 25.4 | - | - | - | - | S | 13 | 15 | 7 | 8 | 1016.2 | 1016.1 | - | |
| 29/02:00am | 25.2 | - | - | - | - | S | 15 | 15 | 8 | 8 | 1016.2 | 1016.1 | - | |
| 29/01:30am | 24.6 | - | - | - | - | S | 13 | 15 | 7 | 8 | 1016.4 | 1016.3 | - | |
| 29/01:00am | 24.6 | - | - | - | - | S | 13 | 15 | 7 | 8 | 1016.6 | 1016.5 | - | |
| 29/12:30am | 24.6 | - | - | - | - | S | 13 | 15 | 7 | 8 | 1016.8 | 1016.7 | - | |
| 29/12:00am | 25.2 | - | - | - | - | SSW | 13 | 17 | 7 | 9 | 1017.1 | 1017.0 | - | |
| Date/Time WST |
Temp °C |
App Temp °C |
Dew Point °C |
Rel Hum % |
Delta-T °C |
Wind | Press QNH hPa |
Press MSL hPa |
Rain since 9am mm |
||||
|---|---|---|---|---|---|---|---|---|---|---|---|---|---|
| Dir | Spd km/h |
Gust km/h |
Spd kts |
Gust kts |
|||||||||
| 28/11:30pm | 25.6 | - | - | - | - | SW | 13 | 17 | 7 | 9 | 1017.1 | 1017.0 | - |
Other formats
Comma delimited format used in spreadsheet applications
http://www.bom.gov.au/fwo/IDW60801/IDW60801.94210.axf
JavaScript Object Notation format (JSON) in row-major order
http://www.bom.gov.au/fwo/IDW60801/IDW60801.94210.json
Data quality
Most of these data are generated automatically and are frequently updated. Quality checks on data are not normally performed. It is possible for incorrect values to appear. Refer to information at About Latest Weather Observations and please check the disclaimer before using these data.
